aviador You're here:

KRID Decoded Metar

in
Report Time2017-07-22 02:35:00
UTC Time2017-07-22 02:36:46
Flight Rules vfr VFR
Wind100° at 06 kt
W.Decomp.*RWY 06: 4.6 kt HW 3.9 kt RCW
RWY 15: 3.9 kt HW 4.6 kt LCW
Visibility9999 m
Phenomena:N/A
Clouds:Scattered 012 Hf
Broken 032 Hf
Overcast 060 Hf
Ceiling3,200 ft
Temp22°C
Dew Point22°C (100% RH)
QNH1016 hPa
Raw Report
METAR KRID 220235Z AUTO 10006KT 10SM SCT012 BKN032 OVC060 22/22 A2999
RMK AO2 P0013=

Extra information for KRID:More info

Social comments